createdAt,value
2023-05-05T00:00:52.056Z,5.9
2023-05-05T00:05:52.003Z,6.3
2023-05-05T00:10:52.040Z,6.6
2023-05-05T00:15:52.052Z,6.6
2023-05-05T00:20:52.068Z,6.6
2023-05-05T00:25:52.045Z,6.6
2023-05-05T00:30:52.064Z,6.8
2023-05-05T00:35:52.047Z,6.9
2023-05-05T00:40:52.033Z,6.9
2023-05-05T00:45:52.065Z,6.6
2023-05-05T00:50:52.249Z,6.6
2023-05-05T00:55:52.071Z,6.8
2023-05-05T01:00:52.069Z,6
2023-05-05T01:05:52.057Z,6
2023-05-05T01:10:52.151Z,6
2023-05-05T01:15:52.110Z,6.8
2023-05-05T01:20:52.126Z,6.8
2023-05-05T01:25:52.068Z,6.8
2023-05-05T01:30:52.084Z,6.8
2023-05-05T01:35:52.074Z,6.8
2023-05-05T01:40:52.069Z,6.8
2023-05-05T01:45:52.092Z,5.5
2023-05-05T01:50:52.086Z,5.5
2023-05-05T01:55:52.066Z,6.3
2023-05-05T02:00:52.089Z,6.3
2023-05-05T02:05:52.123Z,6.8
2023-05-05T02:10:52.215Z,6.8
2023-05-05T02:15:52.119Z,6.9
2023-05-05T02:20:52.132Z,6.9
2023-05-05T02:25:52.111Z,6.3
2023-05-05T02:30:52.098Z,6.9
2023-05-05T02:35:52.092Z,6.9
2023-05-05T02:40:52.023Z,6.9
2023-05-05T02:45:52.084Z,7
2023-05-05T02:50:52.094Z,6.9
2023-05-05T02:55:52.080Z,7
2023-05-05T03:00:52.117Z,7
2023-05-05T03:05:52.115Z,7
2023-05-05T03:10:52.056Z,7.4
2023-05-05T03:15:52.085Z,7.4
2023-05-05T03:20:52.056Z,7.4
2023-05-05T03:25:52.042Z,7.5
2023-05-05T03:30:52.056Z,7.5
2023-05-05T03:35:52.247Z,7.5
2023-05-05T03:40:52.139Z,7.4
2023-05-05T03:45:52.086Z,6.4
2023-05-05T03:50:52.090Z,6.4
2023-05-05T03:55:52.071Z,6.4
2023-05-05T04:00:52.065Z,6.4
2023-05-05T04:05:52.061Z,7.1
2023-05-05T04:10:52.083Z,7.1
2023-05-05T04:15:52.130Z,7.4
2023-05-05T04:20:52.076Z,8.1
2023-05-05T04:25:52.136Z,9.1
2023-05-05T04:30:52.109Z,9.1
2023-05-05T04:35:52.080Z,8.3
2023-05-05T04:40:52.097Z,9.1
2023-05-05T04:45:52.094Z,9.1
2023-05-05T04:50:52.122Z,8.3
2023-05-05T04:55:52.059Z,8.3
2023-05-05T05:00:52.153Z,7.6
2023-05-05T05:05:52.165Z,7.6
2023-05-05T05:10:52.112Z,7.7
2023-05-05T05:15:52.085Z,7.7
2023-05-05T05:20:52.144Z,7.7
2023-05-05T05:25:52.237Z,7.7
2023-05-05T05:30:52.500Z,7.7
2023-05-05T05:35:52.143Z,8.1
2023-05-05T05:40:52.355Z,8.1
2023-05-05T05:45:52.151Z,8.1
2023-05-05T05:50:52.190Z,8.1
2023-05-05T05:55:52.163Z,8.1
2023-05-05T06:00:52.117Z,8.6
2023-05-05T06:05:52.117Z,8.6
2023-05-05T06:10:52.076Z,7.8
2023-05-05T06:15:52.151Z,7.8
2023-05-05T06:20:52.146Z,7.8
2023-05-05T06:25:52.113Z,7.8
2023-05-05T06:30:52.107Z,7.8
2023-05-05T06:35:52.128Z,7.8
2023-05-05T06:40:52.141Z,7.8
2023-05-05T06:45:52.122Z,8
2023-05-05T06:50:52.296Z,8
2023-05-05T06:55:52.193Z,8
2023-05-05T07:00:52.196Z,8
2023-05-05T07:05:52.140Z,8
2023-05-05T07:10:52.108Z,8.8
2023-05-05T07:15:52.112Z,8.9
2023-05-05T07:20:52.160Z,8.8
2023-05-05T07:25:52.090Z,8.8
2023-05-05T07:30:52.110Z,8.9
2023-05-05T07:35:52.116Z,8.9
2023-05-05T07:40:52.175Z,8.9
2023-05-05T07:45:52.149Z,8.9
2023-05-05T07:50:52.134Z,9.4
2023-05-05T07:55:52.122Z,9.7
2023-05-05T08:00:52.108Z,11.1
2023-05-05T08:05:52.129Z,9.7
2023-05-05T08:10:52.145Z,9.7
2023-05-05T08:15:52.292Z,9.7
2023-05-05T08:20:52.359Z,9.5
2023-05-05T08:25:52.224Z,9.5
2023-05-05T08:30:52.130Z,8.7
2023-05-05T08:35:52.111Z,8.7
2023-05-05T08:40:52.148Z,8.7
2023-05-05T08:45:52.136Z,8.7
2023-05-05T08:50:52.097Z,8.7
2023-05-05T08:55:52.170Z,8.9
2023-05-05T09:00:52.185Z,8.7
2023-05-05T09:05:52.140Z,8.9
2023-05-05T09:10:52.196Z,9.6
2023-05-05T09:15:52.087Z,9.6
2023-05-05T09:20:52.179Z,9.6
2023-05-05T09:25:52.140Z,9.6
2023-05-05T09:30:52.145Z,9.2
2023-05-05T09:35:52.194Z,9.2
2023-05-05T09:40:52.316Z,9.2
2023-05-05T09:45:52.240Z,9.2
2023-05-05T09:50:52.641Z,9.1
2023-05-05T09:55:52.178Z,8.5
2023-05-05T10:00:52.212Z,9.1
2023-05-05T10:05:52.187Z,9.2
2023-05-05T10:10:52.126Z,9.2
2023-05-05T10:15:52.227Z,8.9
2023-05-05T10:20:52.185Z,8.6
2023-05-05T10:25:53.628Z,8.9
2023-05-05T10:30:53.184Z,9.5
2023-05-05T10:35:53.238Z,8.9
2023-05-05T10:40:53.140Z,8.9
2023-05-05T10:45:53.126Z,10.2
2023-05-05T10:50:53.191Z,10.2
2023-05-05T10:55:53.131Z,11.1
2023-05-05T11:00:53.260Z,10.2
2023-05-05T11:05:53.190Z,9.9
2023-05-05T11:10:53.172Z,9.9
2023-05-05T11:15:53.204Z,9.9
2023-05-05T11:20:53.180Z,9.8
2023-05-05T11:25:53.255Z,9.8
2023-05-05T11:30:53.206Z,9.1
2023-05-05T11:35:53.150Z,9.1
2023-05-05T11:40:53.147Z,9.1
2023-05-05T11:45:53.244Z,9.6
2023-05-05T11:50:53.220Z,9.1
2023-05-05T11:55:53.323Z,9.1
2023-05-05T12:00:53.164Z,8.2
2023-05-05T12:05:53.197Z,9.1
2023-05-05T12:10:53.207Z,9.1
2023-05-05T12:15:53.160Z,9.6
2023-05-05T12:20:53.165Z,9.9
2023-05-05T12:25:53.188Z,11.7
2023-05-05T12:30:55.072Z,14.2
2023-05-05T12:35:53.211Z,15.7
2023-05-05T12:40:53.194Z,15.7
2023-05-05T12:45:53.258Z,16.3
2023-05-05T12:50:53.144Z,15.7
2023-05-05T12:55:53.194Z,14.8
2023-05-05T13:00:56.221Z,14.8
2023-05-05T13:05:53.216Z,11.6
2023-05-05T13:10:53.234Z,10.6
2023-05-05T13:15:53.273Z,10
2023-05-05T13:20:53.280Z,9.8
2023-05-05T13:25:53.198Z,9.8
2023-05-05T13:30:53.151Z,9.8
2023-05-05T13:35:53.200Z,9.6
2023-05-05T13:40:53.223Z,9.1
2023-05-05T13:45:53.255Z,9.1
2023-05-05T13:50:53.248Z,8.3
2023-05-05T13:55:53.239Z,9.1
2023-05-05T14:00:53.201Z,9.1
2023-05-05T14:05:53.178Z,8.8
2023-05-05T14:10:53.227Z,8.8
2023-05-05T14:15:53.217Z,9.4
2023-05-05T14:20:53.257Z,10
2023-05-05T14:25:53.227Z,11.6
2023-05-05T14:30:53.196Z,10
2023-05-05T14:35:53.208Z,10
2023-05-05T14:40:53.232Z,12.7
2023-05-05T14:45:53.275Z,10
2023-05-05T14:50:53.176Z,10
2023-05-05T14:55:53.252Z,9.4
2023-05-05T15:00:53.189Z,9.4
2023-05-05T15:05:53.199Z,9.4
2023-05-05T15:10:53.241Z,9.2
2023-05-05T15:15:53.255Z,8.5
2023-05-05T15:20:53.232Z,9.2
2023-05-05T15:25:53.291Z,9.2
2023-05-05T15:30:53.280Z,9.1
2023-05-05T15:35:53.237Z,9.5
2023-05-05T15:40:53.235Z,9.7
2023-05-05T15:45:53.288Z,10.1
2023-05-05T15:50:53.217Z,10.2
2023-05-05T15:55:54.789Z,10.1
2023-05-05T16:00:53.328Z,10.1
2023-05-05T16:05:53.266Z,10.1
2023-05-05T16:10:53.218Z,9.7
2023-05-05T16:15:53.264Z,9.7
2023-05-05T16:20:53.219Z,9.7
2023-05-05T16:25:53.210Z,9.7
2023-05-05T16:30:53.229Z,9.7
2023-05-05T16:35:53.269Z,10
2023-05-05T16:40:53.325Z,10.4
2023-05-05T16:45:53.217Z,10.4
2023-05-05T16:50:53.259Z,10.4
2023-05-05T16:55:53.310Z,10.4
2023-05-05T17:00:53.287Z,10.4
2023-05-05T17:05:53.392Z,10.4
2023-05-05T17:10:53.286Z,10.3
2023-05-05T17:15:53.320Z,10.3
2023-05-05T17:20:53.275Z,10.7
2023-05-05T17:25:53.249Z,10.7
2023-05-05T17:30:53.285Z,11.1
2023-05-05T17:35:53.268Z,11.1
2023-05-05T17:40:53.233Z,11.1
2023-05-05T17:45:53.256Z,11.1
2023-05-05T17:50:53.268Z,11.1
2023-05-05T17:55:53.272Z,11.3
2023-05-05T18:00:53.293Z,11.7
2023-05-05T18:05:53.270Z,11.3
2023-05-05T18:10:53.269Z,11.7
2023-05-05T18:15:53.320Z,11.7
2023-05-05T18:20:53.266Z,11.7
2023-05-05T18:25:53.277Z,11.7
2023-05-05T18:30:53.324Z,11.9
2023-05-05T18:35:53.308Z,12.4
2023-05-05T18:40:53.291Z,12.9
2023-05-05T18:45:53.348Z,14.7
2023-05-05T18:50:53.286Z,14.7
2023-05-05T18:55:53.318Z,16.1
2023-05-05T19:00:53.335Z,16.9
2023-05-05T19:05:53.257Z,16.9
2023-05-05T19:10:53.808Z,17.2
2023-05-05T19:15:53.299Z,17.8
2023-05-05T19:20:53.332Z,17.8
2023-05-05T19:25:53.346Z,19.7
2023-05-05T19:30:53.312Z,19.7
2023-05-05T19:35:53.305Z,17.8
2023-05-05T19:40:53.815Z,17.8
2023-05-05T19:45:53.317Z,17.8
2023-05-05T19:50:53.275Z,14.2
2023-05-05T19:55:54.628Z,14.2
2023-05-05T20:00:53.323Z,14.2
2023-05-05T20:05:53.278Z,16.7
2023-05-05T20:10:53.304Z,16.7
2023-05-05T20:15:53.325Z,19.7
2023-05-05T20:20:53.312Z,19.7
2023-05-05T20:25:53.285Z,20.3
2023-05-05T20:30:53.349Z,21.2
2023-05-05T20:35:53.273Z,24.1
2023-05-05T20:40:53.329Z,24.2
2023-05-05T20:45:53.332Z,24.2
2023-05-05T20:50:53.275Z,25.9
2023-05-05T20:55:53.338Z,26
2023-05-05T21:00:53.618Z,25.9
2023-05-05T21:05:53.317Z,25.9
2023-05-05T21:10:53.351Z,24.2
2023-05-05T21:15:53.317Z,26
2023-05-05T21:20:53.351Z,26
2023-05-05T21:25:53.354Z,24.4
2023-05-05T21:31:10.781Z,24.2
2023-05-05T21:35:53.281Z,24.4
2023-05-05T21:40:53.287Z,23.9
2023-05-05T21:45:53.312Z,24.4
2023-05-05T21:50:53.412Z,24.4
2023-05-05T21:55:53.318Z,25.2
2023-05-05T22:00:53.315Z,26.4
2023-05-05T22:05:53.283Z,26.7
2023-05-05T22:10:53.357Z,28
2023-05-05T22:15:53.331Z,28
2023-05-05T22:20:53.313Z,28.3
2023-05-05T22:25:53.359Z,28
2023-05-05T22:30:53.336Z,28
2023-05-05T22:35:53.372Z,28
2023-05-05T22:40:53.350Z,28.3
2023-05-05T22:45:53.336Z,28.3
2023-05-05T22:50:53.316Z,28.3
2023-05-05T22:55:53.282Z,28.3
2023-05-05T23:00:53.398Z,30.3
2023-05-05T23:05:53.391Z,30.5
2023-05-05T23:10:53.333Z,30.8
2023-05-05T23:15:53.346Z,31.8
2023-05-05T23:20:53.374Z,31.8
2023-05-05T23:25:53.358Z,32.3
2023-05-05T23:30:53.405Z,32.6
2023-05-05T23:35:53.322Z,33.6
2023-05-05T23:40:53.322Z,34.5
2023-05-05T23:45:53.383Z,38.7
2023-05-05T23:50:53.309Z,38.7
2023-05-05T23:55:53.364Z,38.7
